createdAt,value
2019-05-03T03:19:36.096Z,28.83
2019-05-03T06:41:35.319Z,22.07
2019-05-03T06:44:04.401Z,22.13
2019-05-03T06:46:46.486Z,21.30
2019-05-03T06:49:32.021Z,21.60
2019-05-03T07:13:34.424Z,13.33
2019-05-03T07:16:05.713Z,13.90
2019-05-03T07:20:09.997Z,14.80
2019-05-03T07:21:19.780Z,13.33
2019-05-03T07:35:59.026Z,11.87
2019-05-03T07:38:35.010Z,10.23
2019-05-03T07:41:55.078Z,11.30
2019-05-03T07:44:38.685Z,10.20
2019-05-03T07:47:15.391Z,11.20
2019-05-03T07:52:42.582Z,11.37
2019-05-03T08:08:07.741Z,8.70
2019-05-03T08:13:48.691Z,7.73
2019-05-03T08:16:24.994Z,7.20
2019-05-03T08:19:10.810Z,7.73
2019-05-03T08:21:39.604Z,7.77
2019-05-03T08:52:55.702Z,3.83
2019-05-03T08:55:24.957Z,4.07
2019-05-03T08:57:55.074Z,3.97
2019-05-03T09:00:25.423Z,3.90
2019-05-03T09:02:54.859Z,3.27
2019-05-03T09:05:25.075Z,3.37
2019-05-03T09:07:54.870Z,2.97
2019-05-03T09:10:42.071Z,3.20
2019-05-03T09:13:14.612Z,2.80
2019-05-03T09:15:47.292Z,3.50
2019-05-03T09:18:17.505Z,3.30
2019-05-03T09:20:46.552Z,3.57
2019-05-03T09:23:15.043Z,2.77
2019-05-03T09:25:45.863Z,3.83
2019-05-03T09:28:15.046Z,4.10
2019-05-03T09:30:44.755Z,3.53
2019-05-03T09:33:15.376Z,3.60
2019-05-03T09:35:45.767Z,3.57
2019-05-03T09:38:15.142Z,3.07
2019-05-03T09:40:45.447Z,2.77
2019-05-03T09:43:16.917Z,3.27
2019-05-03T09:45:45.937Z,2.70
2019-05-03T09:48:15.127Z,2.37
2019-05-03T09:50:59.399Z,2.50
2019-05-03T09:53:32.629Z,2.07
2019-05-03T10:02:17.566Z,2.20
2019-05-03T10:04:51.381Z,1.90
2019-05-03T10:05:19.690Z,1.97
2019-05-03T10:08:05.077Z,2.20
2019-05-03T10:40:25.846Z,2.00
2019-05-03T10:42:45.984Z,1.83
2019-05-03T10:45:15.295Z,2.40
2019-05-03T10:47:47.274Z,2.20
2019-05-03T10:50:16.416Z,2.37
2019-05-03T10:52:56.665Z,2.87
2019-05-03T10:55:27.456Z,2.90
2019-05-03T10:58:16.181Z,3.20
2019-05-03T11:00:53.193Z,3.23
2019-05-03T11:03:23.362Z,3.10
2019-05-03T11:08:45.126Z,3.40
2019-05-03T11:11:15.780Z,3.80
2019-05-03T11:13:46.294Z,3.90
2019-05-03T11:16:22.964Z,3.27
2019-05-03T11:19:00.194Z,4.03
2019-05-03T11:21:34.945Z,3.87
2019-05-03T11:24:09.806Z,3.70
2019-05-03T11:26:39.806Z,4.03
2019-05-03T11:29:08.885Z,3.70
2019-05-03T11:31:45.261Z,3.73
2019-05-03T11:37:29.093Z,3.97
2019-05-03T11:39:58.014Z,3.87
2019-05-03T11:42:26.645Z,3.97
2019-05-03T11:44:55.517Z,4.20
2019-05-03T11:47:27.685Z,3.25
2019-05-03T11:49:56.836Z,3.87
2019-05-03T11:52:25.871Z,3.70
2019-05-03T11:54:55.506Z,4.28
2019-05-03T11:57:27.937Z,3.77
2019-05-03T11:59:58.759Z,3.67
2019-05-03T12:02:39.867Z,4.13
2019-05-03T12:05:30.513Z,3.47
2019-05-03T12:08:05.499Z,3.53
2019-05-03T12:10:52.702Z,3.70
2019-05-03T12:13:26.262Z,2.80
2019-05-03T12:19:19.440Z,3.03
2019-05-03T12:21:51.323Z,3.47
2019-05-03T12:24:26.309Z,3.37
2019-05-03T12:26:55.830Z,3.57
2019-05-03T12:32:08.022Z,3.30
2019-05-03T12:34:37.012Z,5.20
2019-05-03T12:37:07.413Z,3.57
2019-05-03T12:39:36.076Z,4.00
2019-05-03T12:42:05.877Z,4.10
2019-05-03T12:59:36.047Z,4.70
2019-05-03T13:11:09.205Z,4.40
2019-05-03T13:16:30.850Z,3.77
2019-05-03T13:19:30.890Z,3.47
2019-05-03T13:22:01.362Z,4.37
2019-05-03T13:31:12.981Z,4.90
2019-05-03T13:36:50.950Z,5.13
2019-05-03T13:39:19.953Z,4.33
2019-05-03T13:41:48.830Z,4.67
2019-05-03T13:44:17.709Z,6.57
2019-05-03T13:46:46.310Z,5.90
2019-05-03T13:49:15.869Z,5.17
2019-05-03T13:51:45.223Z,5.53
2019-05-03T13:54:14.956Z,5.57
2019-05-03T13:59:32.271Z,4.73
2019-05-03T14:02:18.897Z,5.30
2019-05-03T14:04:52.305Z,4.93
2019-05-03T14:07:15.218Z,6.07
2019-05-03T14:09:45.242Z,5.80
2019-05-03T14:12:15.426Z,5.03
2019-05-03T14:14:56.097Z,6.40
2019-05-03T14:17:26.538Z,6.33
2019-05-03T14:19:56.991Z,6.43
2019-05-03T14:22:27.494Z,6.83
2019-05-03T14:24:59.756Z,6.57
2019-05-03T14:27:28.605Z,6.00
2019-05-03T14:29:57.462Z,5.00
2019-05-03T14:32:37.713Z,5.80
2019-05-03T14:35:07.641Z,5.67
2019-05-03T14:37:37.976Z,5.90
2019-05-03T14:40:09.050Z,6.10
2019-05-03T14:42:37.635Z,6.27
2019-05-03T14:45:07.813Z,6.90
2019-05-03T14:47:38.753Z,6.73
2019-05-03T14:50:16.037Z,6.40
2019-05-03T14:53:19.115Z,6.23
2019-05-03T15:10:45.646Z,6.20
2019-05-03T15:13:15.872Z,6.30
2019-05-03T15:15:47.574Z,6.97
2019-05-03T15:18:15.902Z,6.57
2019-05-03T15:20:46.374Z,8.20
2019-05-03T15:23:16.749Z,5.57
2019-05-03T15:25:56.738Z,6.97
2019-05-03T15:28:27.928Z,6.47
2019-05-03T15:30:56.708Z,6.13
2019-05-03T15:33:25.434Z,6.03
2019-05-03T15:36:01.087Z,6.10
2019-05-03T15:41:11.786Z,7.07
2019-05-03T15:47:15.742Z,6.20
2019-05-03T15:49:44.790Z,6.53
2019-05-03T15:52:15.208Z,7.47
2019-05-03T15:54:44.500Z,7.10
2019-05-03T15:57:52.865Z,6.53
2019-05-03T16:31:08.860Z,5.40
2019-05-03T16:40:16.772Z,5.00
2019-05-03T16:45:55.126Z,5.23
2019-05-03T16:51:52.680Z,5.10
2019-05-03T16:54:35.389Z,5.50
2019-05-03T16:57:07.747Z,5.70
2019-05-03T16:59:41.611Z,5.60
2019-05-03T17:02:10.644Z,5.63
2019-05-03T17:04:46.631Z,5.07
2019-05-03T17:07:32.235Z,4.93
2019-05-03T17:10:02.407Z,4.50
2019-05-03T17:15:36.253Z,5.20
2019-05-03T17:18:11.248Z,4.70
2019-05-03T17:20:49.108Z,4.70
2019-05-03T17:26:35.781Z,4.87
2019-05-03T17:29:04.735Z,4.63
2019-05-03T17:31:35.311Z,4.90
2019-05-03T17:34:05.540Z,5.00
2019-05-03T17:36:34.530Z,5.63
2019-05-03T17:39:05.009Z,4.40
2019-05-03T17:42:17.277Z,4.67
2019-05-03T17:44:47.816Z,5.07
2019-05-03T17:51:10.296Z,5.17
2019-05-03T18:02:45.871Z,5.40
2019-05-03T18:11:36.172Z,5.00
2019-05-03T18:14:05.517Z,5.17
2019-05-03T18:16:51.011Z,5.73
2019-05-03T18:19:38.022Z,5.17
2019-05-03T18:22:15.319Z,5.80
2019-05-03T18:24:45.536Z,4.97
2019-05-03T18:27:16.264Z,4.57
2019-05-03T18:39:06.044Z,4.80
2019-05-03T18:55:19.649Z,4.20
2019-05-03T19:22:42.027Z,5.33
2019-05-03T19:25:27.918Z,5.27
2019-05-03T19:28:13.968Z,4.70
2019-05-03T19:33:59.443Z,5.67
2019-05-03T19:36:28.117Z,5.27
2019-05-03T19:38:57.014Z,6.10
2019-05-03T19:41:31.370Z,6.23
2019-05-03T19:44:00.125Z,5.27
2019-05-03T19:46:35.361Z,5.47
2019-05-03T19:49:05.079Z,6.07
2019-05-03T19:51:34.360Z,5.87
2019-05-03T19:54:05.391Z,6.03
2019-05-03T19:56:44.616Z,5.50
2019-05-03T19:59:16.009Z,5.33
2019-05-03T20:01:46.795Z,5.00
2019-05-03T20:04:29.421Z,5.17
2019-05-03T20:07:32.397Z,5.77
2019-05-03T20:12:47.936Z,5.60
2019-05-03T20:15:33.741Z,6.50
2019-05-03T20:18:18.646Z,6.33
2019-05-03T20:21:04.327Z,5.83
2019-05-03T20:23:44.773Z,6.37
2019-05-03T20:26:18.364Z,5.93
2019-05-03T20:29:05.257Z,6.87
2019-05-03T20:31:44.570Z,5.93
2019-05-03T20:34:20.007Z,6.40
2019-05-03T20:36:55.061Z,6.53
2019-05-03T20:39:27.164Z,6.53
2019-05-03T20:41:58.933Z,6.57
2019-05-03T20:44:36.952Z,6.20
2019-05-03T20:47:11.460Z,6.67
2019-05-03T20:49:45.137Z,6.77
2019-05-03T20:52:17.079Z,7.27
2019-05-03T20:54:48.790Z,6.83
2019-05-03T20:57:24.740Z,7.20
2019-05-03T20:59:54.465Z,7.20
2019-05-03T21:02:25.442Z,6.93
2019-05-03T21:05:00.428Z,6.37
2019-05-03T21:07:31.096Z,7.03
2019-05-03T21:10:06.024Z,6.37
2019-05-03T21:12:45.695Z,7.00
2019-05-03T21:15:16.222Z,6.50
2019-05-03T21:18:01.863Z,6.83
2019-05-03T21:20:38.924Z,6.93
2019-05-03T21:23:17.925Z,6.57
2019-05-03T21:26:13.183Z,6.70
2019-05-03T21:28:44.928Z,6.03
2019-05-03T21:31:35.228Z,7.07
2019-05-03T21:34:16.909Z,6.63
2019-05-03T21:36:45.945Z,6.73
2019-05-03T21:39:16.721Z,6.63
2019-05-03T21:41:49.737Z,7.23
2019-05-03T21:44:27.571Z,7.33
2019-05-03T21:46:59.628Z,7.50
2019-05-03T21:49:36.531Z,6.73
2019-05-03T21:52:14.702Z,7.70
2019-05-03T21:54:49.600Z,7.13
2019-05-03T21:57:27.499Z,6.67
2019-05-03T22:00:14.330Z,7.33
2019-05-03T22:03:09.145Z,7.27
2019-05-03T22:05:54.112Z,7.80
2019-05-03T22:10:45.307Z,8.03
2019-05-03T22:13:19.760Z,7.73
2019-05-03T22:15:53.775Z,7.40
2019-05-03T22:18:35.989Z,7.33
2019-05-03T22:23:00.669Z,7.07
2019-05-03T22:23:47.586Z,6.00
2019-05-03T22:29:10.126Z,5.90
2019-05-03T22:31:54.689Z,7.20
2019-05-03T22:34:34.973Z,7.50
2019-05-03T22:37:22.180Z,7.40
2019-05-03T22:40:05.225Z,7.63
2019-05-03T22:42:37.886Z,6.83
2019-05-03T22:45:20.955Z,7.10
2019-05-03T22:51:01.130Z,6.87
2019-05-03T22:57:24.491Z,6.33
2019-05-03T23:03:17.909Z,7.30
2019-05-03T23:14:04.940Z,6.57
2019-05-03T23:19:23.243Z,6.17
2019-05-03T23:31:15.168Z,6.43
2019-05-03T23:36:49.429Z,6.67
2019-05-03T23:39:50.616Z,7.07
2019-05-03T23:42:37.940Z,6.57
2019-05-03T23:45:50.986Z,6.03
2019-05-03T23:51:08.059Z,5.97
2019-05-03T23:53:56.394Z,5.90
2019-05-03T23:56:36.392Z,6.53
2019-05-03T23:59:14.928Z,6.90
